createdAt,value
2022-07-28T00:01:59.605Z,51.22
2022-07-28T00:04:29.624Z,51.73
2022-07-28T00:06:59.560Z,51.59
2022-07-28T00:09:30.774Z,51.54
2022-07-28T00:12:00.612Z,51.54
2022-07-28T00:14:31.044Z,51.51
2022-07-28T00:17:01.110Z,51.20
2022-07-28T00:19:30.886Z,51.52
2022-07-28T00:22:01.002Z,51.64
2022-07-28T00:24:31.786Z,51.53
2022-07-28T00:27:01.392Z,52.32
2022-07-28T00:29:49.114Z,52.27
2022-07-28T00:32:02.934Z,52.62
2022-07-28T00:34:32.902Z,52.62
2022-07-28T00:37:06.655Z,52.33
2022-07-28T00:39:36.041Z,52.34
2022-07-28T00:42:08.517Z,52.50
2022-07-28T00:44:40.266Z,52.86
2022-07-28T00:47:11.794Z,52.85
2022-07-28T00:49:42.004Z,52.61
2022-07-28T00:52:13.104Z,52.50
2022-07-28T00:54:42.860Z,52.17
2022-07-28T00:57:13.188Z,52.39
2022-07-28T00:59:43.312Z,52.32
2022-07-28T01:02:13.284Z,52.23
2022-07-28T01:04:43.184Z,52.01
2022-07-28T01:07:32.757Z,52.46
2022-07-28T01:10:11.161Z,52.46
2022-07-28T01:12:58.416Z,52.61
2022-07-28T01:15:39.827Z,52.86
2022-07-28T01:18:14.453Z,52.77
2022-07-28T01:20:47.976Z,52.77
2022-07-28T01:23:35.693Z,53.23
2022-07-28T01:26:33.721Z,52.88
2022-07-28T01:29:27.589Z,53.00
2022-07-28T01:32:09.284Z,53.29
2022-07-28T01:34:42.975Z,53.31
2022-07-28T01:37:15.785Z,53.46
2022-07-28T01:39:49.939Z,53.38
2022-07-28T01:42:22.464Z,53.06
2022-07-28T01:44:54.363Z,53.26
2022-07-28T01:47:26.930Z,53.48
2022-07-28T01:49:58.842Z,53.16
2022-07-28T01:52:29.904Z,53.74
2022-07-28T01:55:02.006Z,54.25
2022-07-28T01:57:33.804Z,53.69
2022-07-28T02:00:05.984Z,54.10
2022-07-28T02:02:39.405Z,54.25
2022-07-28T02:05:10.746Z,53.71
2022-07-28T02:07:43.184Z,54.87
2022-07-28T02:10:16.803Z,54.65
2022-07-28T02:12:49.933Z,54.28
2022-07-28T02:15:21.893Z,54.08
2022-07-28T02:17:53.865Z,54.78
2022-07-28T02:20:23.904Z,54.55
2022-07-28T02:22:54.781Z,55.33
2022-07-28T02:25:24.690Z,54.75
2022-07-28T02:27:57.856Z,54.62
2022-07-28T02:30:34.092Z,54.62
2022-07-28T02:33:12.668Z,54.92
2022-07-28T02:35:57.728Z,55.40
2022-07-28T02:38:34.818Z,55.05
2022-07-28T02:41:07.827Z,55.09
2022-07-28T02:43:50.350Z,55.40
2022-07-28T02:46:14.709Z,55.40
2022-07-28T02:48:47.492Z,56.01
2022-07-28T02:51:19.538Z,55.19
2022-07-28T02:53:49.640Z,55.37
2022-07-28T02:56:20.156Z,55.59
2022-07-28T02:58:51.054Z,56.09
2022-07-28T03:01:22.758Z,55.50
2022-07-28T03:03:55.589Z,54.96
2022-07-28T03:06:28.546Z,55.15
2022-07-28T03:08:58.231Z,54.72
2022-07-28T03:11:29.051Z,54.83
2022-07-28T03:13:58.834Z,54.83
2022-07-28T03:16:31.200Z,54.68
2022-07-28T03:19:01.060Z,55.03
2022-07-28T03:21:30.833Z,55.09
2022-07-28T03:24:01.295Z,54.94
2022-07-28T03:26:36.509Z,55.09
2022-07-28T03:29:06.517Z,55.30
2022-07-28T03:31:39.676Z,55.22
2022-07-28T03:34:11.939Z,55.32
2022-07-28T03:36:45.051Z,55.71
2022-07-28T03:39:16.678Z,55.49
2022-07-28T03:41:46.992Z,55.31
2022-07-28T03:44:27.828Z,55.33
2022-07-28T03:46:48.867Z,55.49
2022-07-28T03:49:18.797Z,55.46
2022-07-28T03:51:48.800Z,55.51
2022-07-28T03:54:18.571Z,55.82
2022-07-28T03:56:48.615Z,55.61
2022-07-28T03:59:19.569Z,55.88
2022-07-28T04:01:49.437Z,55.90
2022-07-28T04:04:18.975Z,55.95
2022-07-28T04:06:48.752Z,56.62
2022-07-28T04:09:18.888Z,57.80
2022-07-28T04:11:48.669Z,56.13
2022-07-28T04:14:18.851Z,56.48
2022-07-28T04:16:48.947Z,56.67
2022-07-28T04:19:18.737Z,56.49
2022-07-28T04:21:48.508Z,56.68
2022-07-28T04:24:18.485Z,56.54
2022-07-28T04:26:48.526Z,56.62
2022-07-28T04:29:23.469Z,56.53
2022-07-28T04:31:50.242Z,56.43
2022-07-28T04:34:20.046Z,55.67
2022-07-28T04:36:51.452Z,56.08
2022-07-28T04:39:21.264Z,56.15
2022-07-28T04:41:52.199Z,56.15
2022-07-28T04:44:21.969Z,56.74
2022-07-28T04:46:51.734Z,56.25
2022-07-28T04:49:21.839Z,56.39
2022-07-28T04:51:52.444Z,56.98
2022-07-28T04:54:26.722Z,56.98
2022-07-28T04:56:55.897Z,56.47
2022-07-28T04:59:25.705Z,56.43
2022-07-28T05:01:57.909Z,57.22
2022-07-28T05:04:27.905Z,57.18
2022-07-28T05:06:57.748Z,57.58
2022-07-28T05:09:27.596Z,57.45
2022-07-28T05:11:57.385Z,58.31
2022-07-28T05:14:27.239Z,57.18
2022-07-28T05:16:57.442Z,57.60
2022-07-28T05:19:27.296Z,58.23
2022-07-28T05:21:57.157Z,58.48
2022-07-28T05:24:26.659Z,57.82
2022-07-28T05:26:56.765Z,57.11
2022-07-28T05:29:35.156Z,57.13
2022-07-28T05:31:58.381Z,56.95
2022-07-28T05:34:27.913Z,56.44
2022-07-28T05:36:57.856Z,55.82
2022-07-28T05:39:27.459Z,55.98
2022-07-28T05:41:57.217Z,55.46
2022-07-28T05:44:26.935Z,55.47
2022-07-28T05:46:56.801Z,55.54
2022-07-28T05:49:26.931Z,54.99
2022-07-28T05:51:56.987Z,54.83
2022-07-28T05:54:26.551Z,54.03
2022-07-28T05:56:56.611Z,53.54
2022-07-28T05:59:26.710Z,52.99
2022-07-28T06:01:56.514Z,52.51
2022-07-28T06:04:27.890Z,52.66
2022-07-28T06:06:58.092Z,52.47
2022-07-28T06:09:27.872Z,51.53
2022-07-28T06:11:57.664Z,50.27
2022-07-28T06:14:27.423Z,49.89
2022-07-28T06:16:57.294Z,50.18
2022-07-28T06:19:27.121Z,49.42
2022-07-28T06:21:56.682Z,49.42
2022-07-28T06:24:27.043Z,49.20
2022-07-28T06:26:56.876Z,48.97
2022-07-28T06:29:26.373Z,48.88
2022-07-28T06:31:55.904Z,48.25
2022-07-28T06:34:25.673Z,48.79
2022-07-28T06:36:55.787Z,47.65
2022-07-28T06:39:25.681Z,48.05
2022-07-28T06:41:55.449Z,47.25
2022-07-28T06:44:42.528Z,47.25
2022-07-28T06:46:58.288Z,47.94
2022-07-28T06:49:27.865Z,47.51
2022-07-28T06:51:57.768Z,47.53
2022-07-28T06:54:27.619Z,47.54
2022-07-28T06:56:57.372Z,48.00
2022-07-28T06:59:27.322Z,47.54
2022-07-28T07:01:58.936Z,47.15
2022-07-28T07:04:29.764Z,47.42
2022-07-28T07:06:59.565Z,46.87
2022-07-28T07:09:29.330Z,46.97
2022-07-28T07:12:00.135Z,47.11
2022-07-28T07:14:30.753Z,46.55
2022-07-28T07:17:00.582Z,46.06
2022-07-28T07:19:30.349Z,46.22
2022-07-28T07:22:00.137Z,46.74
2022-07-28T07:24:29.915Z,46.21
2022-07-28T07:26:59.808Z,45.44
2022-07-28T07:29:30.353Z,45.81
2022-07-28T07:32:00.554Z,45.95
2022-07-28T07:34:30.603Z,45.55
2022-07-28T07:37:00.670Z,45.50
2022-07-28T07:39:30.724Z,45.06
2022-07-28T07:42:00.514Z,45.65
2022-07-28T07:44:29.961Z,44.88
2022-07-28T07:46:59.851Z,44.45
2022-07-28T07:49:45.154Z,43.79
2022-07-28T07:52:01.320Z,43.22
2022-07-28T07:54:31.106Z,43.74
2022-07-28T07:57:01.415Z,43.25
2022-07-28T07:59:31.176Z,42.34
2022-07-28T08:02:01.251Z,42.35
2022-07-28T08:04:31.187Z,41.46
2022-07-28T08:07:00.974Z,41.01
2022-07-28T08:09:30.748Z,41.22
2022-07-28T08:12:00.607Z,39.54
2022-07-28T08:14:30.263Z,39.82
2022-07-28T08:17:00.313Z,40.03
2022-07-28T08:19:30.109Z,39.56
2022-07-28T08:22:01.662Z,39.72
2022-07-28T08:24:32.998Z,39.63
2022-07-28T08:27:04.185Z,38.62
2022-07-28T08:29:34.209Z,38.03
2022-07-28T08:32:06.584Z,38.90
2022-07-28T08:34:37.031Z,38.40
2022-07-28T08:37:07.484Z,37.88
2022-07-28T08:39:37.678Z,37.32
2022-07-28T08:42:18.445Z,37.76
2022-07-28T08:44:57.184Z,37.77
2022-07-28T08:47:40.253Z,37.43
2022-07-28T08:50:00.275Z,37.43
2022-07-28T08:52:31.881Z,36.18
2022-07-28T08:55:04.917Z,36.62
2022-07-28T08:57:40.080Z,36.31
2022-07-28T09:00:12.696Z,36.31
2022-07-28T09:02:46.105Z,36.25
2022-07-28T09:05:16.211Z,36.25
2022-07-28T09:07:54.081Z,35.61
2022-07-28T09:10:21.809Z,34.60
2022-07-28T09:12:52.282Z,35.00
2022-07-28T09:15:21.769Z,35.39
2022-07-28T09:17:51.525Z,34.69
2022-07-28T09:20:21.691Z,34.70
2022-07-28T09:23:00.026Z,34.87
2022-07-28T09:25:31.118Z,34.71
2022-07-28T09:28:14.465Z,33.81
2022-07-28T09:30:53.511Z,34.38
2022-07-28T09:33:42.175Z,33.67
2022-07-28T09:35:58.256Z,33.40
2022-07-28T09:38:28.607Z,34.13
2022-07-28T09:41:04.117Z,33.02
2022-07-28T09:43:39.560Z,33.01
2022-07-28T09:46:23.752Z,33.58
2022-07-28T09:48:56.382Z,33.25
2022-07-28T09:51:33.258Z,33.25
2022-07-28T09:54:14.821Z,33.28
2022-07-28T09:56:46.158Z,33.37
2022-07-28T09:59:18.054Z,33.02
2022-07-28T10:02:03.048Z,32.13
2022-07-28T10:04:38.050Z,32.19
2022-07-28T10:07:14.127Z,31.38
2022-07-28T10:09:45.027Z,31.93
2022-07-28T10:12:22.767Z,31.44
2022-07-28T10:14:54.632Z,32.39
2022-07-28T10:17:26.128Z,32.00
2022-07-28T10:19:58.324Z,31.48
2022-07-28T10:22:32.407Z,31.95
2022-07-28T10:25:04.436Z,31.26
2022-07-28T10:27:34.485Z,30.91
2022-07-28T10:30:08.127Z,30.42
2022-07-28T10:32:46.367Z,30.42
2022-07-28T10:35:17.653Z,30.52
2022-07-28T10:38:02.621Z,29.85
2022-07-28T10:40:38.248Z,29.89
2022-07-28T10:43:09.647Z,29.72
2022-07-28T10:46:04.265Z,30.29
2022-07-28T10:48:13.934Z,30.66
2022-07-28T10:50:45.071Z,29.58
2022-07-28T10:53:34.183Z,29.81
2022-07-28T10:56:15.079Z,29.69
2022-07-28T10:59:04.917Z,29.58
2022-07-28T11:01:50.036Z,29.79
2022-07-28T11:04:31.609Z,29.50
2022-07-28T11:07:12.012Z,29.49
2022-07-28T11:09:42.009Z,30.07
2022-07-28T11:12:13.244Z,29.25
2022-07-28T11:14:44.695Z,29.93
2022-07-28T11:17:24.320Z,29.17
2022-07-28T11:22:28.194Z,29.51
2022-07-28T11:25:20.012Z,29.96
2022-07-28T11:27:47.410Z,28.88
2022-07-28T11:30:31.223Z,29.06
2022-07-28T11:33:01.963Z,28.80
2022-07-28T11:35:42.778Z,28.80
2022-07-28T11:38:13.998Z,28.83
2022-07-28T11:40:48.933Z,29.10
2022-07-28T11:43:36.032Z,29.03
2022-07-28T11:46:11.836Z,28.55
2022-07-28T11:48:44.787Z,28.32
2022-07-28T11:51:15.828Z,28.91
2022-07-28T11:53:48.072Z,28.30
2022-07-28T11:56:26.450Z,28.34
2022-07-28T11:59:01.914Z,27.97
2022-07-28T12:01:32.529Z,27.35
2022-07-28T12:04:14.185Z,27.79
2022-07-28T12:06:51.168Z,28.22
2022-07-28T12:09:23.300Z,27.76
2022-07-28T12:11:51.224Z,27.76
2022-07-28T12:14:22.462Z,27.95
2022-07-28T12:16:53.460Z,27.46
2022-07-28T12:19:24.170Z,27.21
2022-07-28T12:21:58.247Z,26.66
2022-07-28T12:24:30.168Z,26.67
2022-07-28T12:27:00.960Z,26.36
2022-07-28T12:29:35.729Z,26.61
2022-07-28T12:32:12.774Z,26.61
2022-07-28T12:34:44.328Z,26.18
2022-07-28T12:37:14.881Z,25.54
2022-07-28T12:39:46.096Z,24.71
2022-07-28T12:42:15.561Z,26.11
2022-07-28T12:44:48.444Z,25.40
2022-07-28T12:47:21.240Z,25.31
2022-07-28T12:49:58.549Z,25.04
2022-07-28T12:52:26.341Z,25.10
2022-07-28T12:54:56.824Z,25.93
2022-07-28T12:57:51.397Z,26.90
2022-07-28T13:00:26.989Z,27.38
2022-07-28T13:02:59.132Z,26.59
2022-07-28T13:05:54.935Z,26.14
2022-07-28T13:08:27.679Z,26.83
2022-07-28T13:11:01.105Z,26.75
2022-07-28T13:13:30.866Z,26.43
2022-07-28T13:16:15.479Z,26.47
2022-07-28T13:18:54.073Z,26.69
2022-07-28T13:21:56.506Z,26.69
2022-07-28T13:24:19.720Z,25.95
2022-07-28T13:26:49.989Z,26.62
2022-07-28T13:29:19.784Z,25.88
2022-07-28T13:31:49.604Z,26.28
2022-07-28T13:34:19.275Z,26.53
2022-07-28T13:36:49.115Z,26.72
2022-07-28T13:39:18.874Z,26.37
2022-07-28T13:41:58.266Z,25.96
2022-07-28T13:44:20.203Z,26.33
2022-07-28T13:46:50.531Z,25.81
2022-07-28T13:49:21.225Z,26.07
2022-07-28T13:51:51.835Z,25.75
2022-07-28T13:54:22.083Z,25.65
2022-07-28T13:56:51.895Z,25.40
2022-07-28T13:59:22.217Z,25.25
2022-07-28T14:01:55.245Z,25.30
2022-07-28T14:04:25.207Z,25.22
2022-07-28T14:06:56.230Z,25.49
2022-07-28T14:09:25.994Z,25.05
2022-07-28T14:11:55.800Z,25.09
2022-07-28T14:14:26.029Z,25.41
2022-07-28T14:16:55.893Z,25.04
2022-07-28T14:19:38.460Z,25.04
2022-07-28T14:21:58.563Z,24.83
2022-07-28T14:24:28.113Z,24.97
2022-07-28T14:26:57.869Z,24.49
2022-07-28T14:29:28.052Z,25.22
2022-07-28T14:31:59.380Z,24.56
2022-07-28T14:34:29.307Z,24.93
2022-07-28T14:36:59.071Z,25.03
2022-07-28T14:39:30.545Z,24.27
2022-07-28T14:42:00.036Z,24.18
2022-07-28T14:44:29.875Z,24.24
2022-07-28T14:46:59.753Z,25.17
2022-07-28T14:49:29.499Z,25.17
2022-07-28T14:51:59.467Z,25.63
2022-07-28T14:54:30.011Z,26.04
2022-07-28T14:56:59.776Z,26.64
2022-07-28T14:59:29.283Z,26.52
2022-07-28T15:01:59.306Z,25.73
2022-07-28T15:04:29.133Z,25.84
2022-07-28T15:06:58.904Z,26.24
2022-07-28T15:09:28.662Z,25.69
2022-07-28T15:11:58.444Z,25.62
2022-07-28T15:14:28.149Z,26.25
2022-07-28T15:16:58.786Z,26.25
2022-07-28T15:19:28.274Z,25.47
2022-07-28T15:21:59.007Z,25.21
2022-07-28T15:24:30.504Z,25.04
2022-07-28T15:27:01.196Z,25.06
2022-07-28T15:29:35.285Z,25.18
2022-07-28T15:32:06.840Z,24.57
2022-07-28T15:34:38.572Z,24.64
2022-07-28T15:37:08.700Z,25.04
2022-07-28T15:39:43.233Z,26.15
2022-07-28T15:42:11.235Z,25.64
2022-07-28T15:44:41.006Z,25.83
2022-07-28T15:47:10.778Z,25.78
2022-07-28T15:49:41.570Z,25.64
2022-07-28T15:52:12.225Z,25.77
2022-07-28T15:54:42.142Z,25.91
2022-07-28T15:57:11.962Z,26.22
2022-07-28T15:59:49.902Z,26.38
2022-07-28T16:02:13.335Z,26.77
2022-07-28T16:04:48.453Z,26.59
2022-07-28T16:07:19.195Z,27.36
2022-07-28T16:09:52.079Z,27.40
2022-07-28T16:12:22.903Z,27.40
2022-07-28T16:14:54.049Z,27.76
2022-07-28T16:17:25.073Z,27.67
2022-07-28T16:19:54.566Z,27.74
2022-07-28T16:22:24.037Z,27.75
2022-07-28T16:24:53.799Z,27.84
2022-07-28T16:27:23.282Z,27.98
2022-07-28T16:29:53.087Z,27.80
2022-07-28T16:32:22.558Z,28.33
2022-07-28T16:34:53.774Z,28.38
2022-07-28T16:37:23.275Z,29.03
2022-07-28T16:39:53.103Z,28.62
2022-07-28T16:42:22.801Z,28.53
2022-07-28T16:44:52.692Z,28.95
2022-07-28T16:47:22.752Z,28.66
2022-07-28T16:49:52.320Z,28.41
2022-07-28T16:52:22.163Z,28.73
2022-07-28T16:54:52.192Z,28.74
2022-07-28T16:57:22.036Z,28.39
2022-07-28T16:59:51.878Z,29.17
2022-07-28T17:02:21.374Z,28.52
2022-07-28T17:04:51.192Z,28.44
2022-07-28T17:07:22.045Z,29.09
2022-07-28T17:09:51.881Z,29.42
2022-07-28T17:12:21.363Z,29.42
2022-07-28T17:14:51.127Z,29.12
2022-07-28T17:17:20.891Z,28.88
2022-07-28T17:19:50.714Z,29.01
2022-07-28T17:22:22.046Z,28.97
2022-07-28T17:24:52.006Z,28.79
2022-07-28T17:27:39.670Z,28.79
2022-07-28T17:29:54.063Z,28.71
2022-07-28T17:32:23.835Z,29.19
2022-07-28T17:34:54.157Z,30.13
2022-07-28T17:37:23.935Z,30.13
2022-07-28T17:39:53.981Z,30.28
2022-07-28T17:42:23.750Z,30.16
2022-07-28T17:44:55.388Z,31.22
2022-07-28T17:47:36.143Z,31.22
2022-07-28T17:49:57.190Z,30.61
2022-07-28T17:52:26.755Z,30.29
2022-07-28T17:55:14.074Z,30.50
2022-07-28T17:57:45.317Z,31.07
2022-07-28T18:00:17.073Z,30.90
2022-07-28T18:02:50.942Z,31.02
2022-07-28T18:05:21.352Z,31.51
2022-07-28T18:07:54.849Z,32.23
2022-07-28T18:10:24.685Z,32.23
2022-07-28T18:12:54.291Z,32.44
2022-07-28T18:15:24.152Z,32.98
2022-07-28T18:17:55.892Z,32.74
2022-07-28T18:20:26.032Z,32.74
2022-07-28T18:22:57.789Z,33.15
2022-07-28T18:25:30.212Z,33.03
2022-07-28T18:28:00.255Z,33.36
2022-07-28T18:30:30.304Z,33.19
2022-07-28T18:33:01.506Z,32.99
2022-07-28T18:35:32.310Z,33.25
2022-07-28T18:38:02.106Z,33.50
2022-07-28T18:40:32.419Z,33.50
2022-07-28T18:43:02.175Z,33.78
2022-07-28T18:45:31.951Z,34.72
2022-07-28T18:48:03.388Z,34.72
2022-07-28T18:50:33.152Z,34.63
2022-07-28T18:53:03.202Z,34.74
2022-07-28T18:55:32.972Z,34.96
2022-07-28T18:58:02.731Z,35.55
2022-07-28T19:00:33.384Z,35.23
2022-07-28T19:03:03.547Z,34.74
2022-07-28T19:05:36.980Z,35.49
2022-07-28T19:08:04.777Z,35.53
2022-07-28T19:10:34.617Z,35.53
2022-07-28T19:13:04.745Z,35.65
2022-07-28T19:15:36.546Z,35.95
2022-07-28T19:18:11.006Z,36.73
2022-07-28T19:20:40.988Z,36.49
2022-07-28T19:23:10.729Z,36.61
2022-07-28T19:25:41.009Z,36.45
2022-07-28T19:28:11.939Z,37.08
2022-07-28T19:30:42.343Z,36.37
2022-07-28T19:33:17.224Z,36.29
2022-07-28T19:35:43.656Z,36.99
2022-07-28T19:38:13.404Z,37.28
2022-07-28T19:40:43.602Z,37.61
2022-07-28T19:43:13.430Z,37.86
2022-07-28T19:45:43.280Z,37.26
2022-07-28T19:48:13.476Z,37.48
2022-07-28T19:50:49.991Z,37.48
2022-07-28T19:53:15.824Z,37.34
2022-07-28T19:55:50.585Z,37.60
2022-07-28T19:58:17.509Z,38.17
2022-07-28T20:00:48.375Z,37.99
2022-07-28T20:04:01.825Z,38.16
2022-07-28T20:05:50.250Z,38.16
2022-07-28T20:08:19.782Z,38.58
2022-07-28T20:10:50.404Z,38.55
2022-07-28T20:13:20.253Z,38.81
2022-07-28T20:15:50.089Z,39.03
2022-07-28T20:18:19.919Z,38.72
2022-07-28T20:20:49.756Z,38.82
2022-07-28T20:23:19.512Z,39.27
2022-07-28T20:25:49.655Z,39.22
2022-07-28T20:28:19.115Z,39.02
2022-07-28T20:30:49.286Z,39.09
2022-07-28T20:33:19.263Z,39.09
2022-07-28T20:35:49.014Z,39.77
2022-07-28T20:38:22.128Z,39.77
2022-07-28T20:40:52.326Z,40.21
2022-07-28T20:43:22.161Z,39.19
2022-07-28T20:45:51.979Z,39.39
2022-07-28T20:48:21.797Z,39.71
2022-07-28T20:50:51.556Z,39.90
2022-07-28T20:53:21.096Z,40.10
2022-07-28T20:55:50.849Z,40.80
2022-07-28T20:58:20.624Z,40.63
2022-07-28T21:00:50.616Z,41.37
2022-07-28T21:03:22.211Z,41.37
2022-07-28T21:05:51.969Z,40.33
2022-07-28T21:08:21.912Z,40.86
2022-07-28T21:10:51.847Z,41.25
2022-07-28T21:13:21.609Z,40.82
2022-07-28T21:15:51.339Z,40.63
2022-07-28T21:18:21.102Z,41.10
2022-07-28T21:20:50.867Z,41.22
2022-07-28T21:23:20.708Z,41.17
2022-07-28T21:25:51.276Z,41.49
2022-07-28T21:28:38.595Z,41.71
2022-07-28T21:31:09.531Z,42.35
2022-07-28T21:33:39.632Z,42.35
2022-07-28T21:36:10.367Z,42.12
2022-07-28T21:38:40.208Z,42.25
2022-07-28T21:41:10.032Z,42.60
2022-07-28T21:43:39.944Z,42.60
2022-07-28T21:46:11.749Z,43.32
2022-07-28T21:48:41.573Z,42.92
2022-07-28T21:51:14.785Z,42.88
2022-07-28T21:53:46.131Z,42.83
2022-07-28T21:56:16.472Z,43.48
2022-07-28T21:58:47.458Z,43.62
2022-07-28T22:01:17.294Z,43.33
2022-07-28T22:03:46.993Z,43.33
2022-07-28T22:06:17.034Z,44.44
2022-07-28T22:08:48.791Z,44.34
2022-07-28T22:11:18.543Z,44.56
2022-07-28T22:13:48.426Z,44.62
2022-07-28T22:16:18.281Z,44.65
2022-07-28T22:18:48.104Z,44.11
2022-07-28T22:21:17.851Z,44.74
2022-07-28T22:23:47.650Z,44.45
2022-07-28T22:26:17.640Z,44.18
2022-07-28T22:28:47.169Z,44.39
2022-07-28T22:31:17.066Z,44.62
2022-07-28T22:33:46.922Z,44.91
2022-07-28T22:36:16.881Z,45.21
2022-07-28T22:38:46.648Z,45.17
2022-07-28T22:41:16.398Z,45.54
2022-07-28T22:43:46.139Z,45.39
2022-07-28T22:46:15.829Z,45.61
2022-07-28T22:48:45.677Z,45.94
2022-07-28T22:51:16.686Z,46.25
2022-07-28T22:53:46.177Z,46.71
2022-07-28T22:59:04.232Z,46.04
2022-07-28T23:01:34.837Z,46.36
2022-07-28T23:04:06.024Z,46.34
2022-07-28T23:06:37.605Z,45.84
2022-07-28T23:09:07.720Z,45.64
2022-07-28T23:11:37.559Z,45.99
2022-07-28T23:14:07.400Z,45.59
2022-07-28T23:16:37.311Z,45.59
2022-07-28T23:19:07.142Z,46.29
2022-07-28T23:21:40.487Z,46.24
2022-07-28T23:24:12.088Z,46.50
2022-07-28T23:26:42.254Z,46.56
2022-07-28T23:29:12.101Z,46.56
2022-07-28T23:31:41.972Z,47.02
2022-07-28T23:34:12.029Z,46.23
2022-07-28T23:36:42.264Z,46.35
2022-07-28T23:39:12.854Z,46.35
2022-07-28T23:41:42.690Z,46.96
2022-07-28T23:44:14.733Z,47.31
2022-07-28T23:46:44.717Z,46.85
2022-07-28T23:49:15.788Z,46.85
2022-07-28T23:51:47.710Z,46.56
2022-07-28T23:54:17.868Z,46.67
2022-07-28T23:56:49.403Z,46.71
2022-07-28T23:59:19.264Z,46.73
